Terminal Aerodrome Forecast
Issued by NWS

Home | Current Version | Previous Version | Text Only | Print | Product List | Glossary On
Versions: 1 2 3 4 5 6 7 8 9 10 11 12 13 14 15 16 17
000
FTUS43 KAPX 262324
TAFTVC
TAF
KTVC 262324Z 2700/2724 25011G19KT P6SM -SHRA SCT025 BKN040
     FM270300 25012G23KT P6SM VCSH SCT025 BKN040
     FM270600 24011G22KT P6SM -SHRA SCT025 OVC040
     FM270900 24011G21KT P6SM -SHRA SCT025 OVC035=

USA.gov is the U.S. government's official web portal to all federal, state and local government web resources and services.